Time;durP1;ratioP1;P1;durP2;ratioP2;P2;SDS_P1;SDS_P2;PMS_P1;PMS_P2;Temp;Humidity;BMP_temperature;BMP_pressure;BME280_temperature;BME280_humidity;BME280_pressure;Samples;Min_cycle;Max_cycle;Signal;HPM_P1;HPM_P2
2023/01/09 00:00:38;;;;;;;;;;;;;;;21.32;28.81;98468.97;5078954;28;991;-76
2023/01/09 00:03:03;;;;;;;;;;;;;;;21.46;28.63;98465.06;5079004;28;1894;-77
2023/01/09 00:05:29;;;;;;;;;;;;;;;21.38;28.68;98460.75;5078968;28;963;-76
2023/01/09 00:07:54;;;;;;;;;;;;;;;21.12;29.05;98468.06;5078607;28;1292;-77
2023/01/09 00:10:20;;;;;;;;;;;;;;;20.75;29.85;98466.25;5077513;28;1044;-76
2023/01/09 00:12:45;;;;;;;;;;;;;;;20.74;29.72;98462.63;5078634;28;950;-77
2023/01/09 00:15:11;;;;;;;;;;;;;;;21.07;29.40;98458.03;5078838;28;970;-76
2023/01/09 00:17:36;;;;;;;;;;;;;;;21.14;29.14;98462.81;5078798;28;1132;-76
2023/01/09 00:20:02;;;;;;;;;;;;;;;21.28;28.93;98464.56;5078303;28;1143;-76
2023/01/09 00:22:27;;;;;;;;;;;;;;;21.01;29.31;98464.63;5059557;28;1910;-76
2023/01/09 00:24:53;;;;;;;;;;;;;;;20.93;29.41;98463.13;5078029;28;976;-76
2023/01/09 00:27:18;;;;;;;;;;;;;;;20.83;29.58;98462.09;5078453;28;976;-76
2023/01/09 00:29:44;;;;;;;;;;;;;;;20.86;29.67;98461.22;5078736;28;980;-77
2023/01/09 00:32:11;;;;;;;;;;;;;;;21.00;29.48;98457.38;5078345;28;938;-76
2023/01/09 00:34:36;;;;;;;;;;;;;;;21.23;28.80;98460.19;5078795;28;856;-76
2023/01/09 00:37:02;;;;;;;;;;;;;;;21.34;28.88;98457.19;5078384;28;936;-76
2023/01/09 00:39:27;;;;;;;;;;;;;;;21.09;29.16;98463.28;5078048;28;942;-77
2023/01/09 00:41:53;;;;;;;;;;;;;;;20.89;29.42;98454.72;5078333;28;957;-76
2023/01/09 00:44:23;;;;;;;;;;;;;;;20.84;29.67;98457.25;5076788;28;1961;-77
2023/01/09 00:46:50;;;;;;;;;;;;;;;20.98;29.50;98451.34;5078366;28;900;-76
2023/01/09 00:49:16;;;;;;;;;;;;;;;21.18;29.35;98446.53;5078319;28;920;-75
2023/01/09 00:51:41;;;;;;;;;;;;;;;21.20;29.30;98444.09;5077163;28;909;-77
2023/01/09 00:54:07;;;;;;;;;;;;;;;21.05;29.11;98439.91;5077787;28;985;-77
2023/01/09 00:56:33;;;;;;;;;;;;;;;20.96;29.26;98431.16;5076651;28;1025;-74
2023/01/09 00:58:59;;;;;;;;;;;;;;;20.89;29.61;98432.09;5077502;28;898;-74
2023/01/09 01:01:24;;;;;;;;;;;;;;;20.91;29.60;98438.13;5078158;28;978;-73
2023/01/09 01:03:49;;;;;;;;;;;;;;;21.06;29.32;98421.69;5075300;28;1983;-73
2023/01/09 01:08:59;;;;;;;;;;;;;;;20.89;29.69;98414.34;5077361;28;892;-73
2023/01/09 01:11:24;;;;;;;;;;;;;;;20.85;29.50;98399.44;5075282;28;966;-74
2023/01/09 01:13:50;;;;;;;;;;;;;;;20.99;29.18;98410.53;5076328;28;1024;-75
2023/01/09 01:16:17;;;;;;;;;;;;;;;20.98;29.50;98409.69;5075216;28;1122;-74
2023/01/09 01:18:42;;;;;;;;;;;;;;;21.20;28.99;98404.47;5075523;28;983;-73
2023/01/09 01:21:08;;;;;;;;;;;;;;;21.30;29.04;98397.84;5075324;28;996;-73
2023/01/09 01:23:34;;;;;;;;;;;;;;;21.08;29.29;98396.59;5074981;28;1894;-73
2023/01/09 01:26:03;;;;;;;;;;;;;;;21.21;29.09;98389.09;5075093;28;1037;-74
2023/01/09 01:28:28;;;;;;;;;;;;;;;20.86;29.60;98401.84;5074765;28;1038;-74
2023/01/09 01:30:54;;;;;;;;;;;;;;;20.92;29.48;98385.16;5074400;28;1144;-74
2023/01/09 01:33:19;;;;;;;;;;;;;;;21.11;29.17;98378.75;5074782;28;985;-74
2023/01/09 01:35:44;;;;;;;;;;;;;;;21.30;28.89;98372.38;5073778;28;1012;-74
2023/01/09 01:38:10;;;;;;;;;;;;;;;21.11;29.02;98375.94;5074415;28;1051;-73
2023/01/09 01:40:37;;;;;;;;;;;;;;;21.04;29.21;98367.59;5074685;28;1111;-73
2023/01/09 01:43:02;;;;;;;;;;;;;;;20.72;29.94;98363.28;5074160;28;1969;-74
2023/01/09 01:45:28;;;;;;;;;;;;;;;21.05;29.54;98363.53;5074738;28;963;-73
2023/01/09 01:48:26;;;;;;;;;;;;;;;21.05;29.74;98352.19;5075979;28;1107;-73
2023/01/09 01:50:53;;;;;;;;;;;;;;;21.23;28.98;98341.31;5034612;28;984;-73
2023/01/09 01:53:22;;;;;;;;;;;;;;;21.24;29.13;98347.78;5034657;28;940;-74
2023/01/09 01:56:08;;;;;;;;;;;;;;;21.00;29.65;98344.22;5035083;28;1092;-73
2023/01/09 01:58:36;;;;;;;;;;;;;;;20.94;29.37;98351.63;5018251;28;1086;-73
2023/01/09 02:01:01;;;;;;;;;;;;;;;20.90;29.74;98342.38;5034250;28;1041;-74
2023/01/09 02:03:27;;;;;;;;;;;;;;;21.23;29.01;98341.31;5034556;28;1918;-74
2023/01/09 02:05:52;;;;;;;;;;;;;;;21.07;29.07;98333.56;5018026;28;1074;-73
2023/01/09 02:08:18;;;;;;;;;;;;;;;21.00;29.52;98327.25;5034244;28;1202;-74
2023/01/09 02:10:43;;;;;;;;;;;;;;;20.72;29.65;98332.16;5034580;28;1083;-73
2023/01/09 02:13:09;;;;;;;;;;;;;;;21.01;29.72;98331.66;5001228;28;936;-74
2023/01/09 02:15:54;;;;;;;;;;;;;;;21.06;29.72;98326.31;5017633;28;911;-74
2023/01/09 02:18:26;;;;;;;;;;;;;;;21.13;29.28;98319.69;4955735;29;1063;-74
2023/01/09 02:21:03;;;;;;;;;;;;;;;20.86;29.46;98327.50;4955939;29;955;-74
2023/01/09 02:23:31;;;;;;;;;;;;;;;20.76;29.92;98335.75;4955878;29;1967;-75
2023/01/09 02:26:05;;;;;;;;;;;;;;;20.80;29.89;98336.47;4968132;28;945;-74
2023/01/09 02:28:39;;;;;;;;;;;;;;;21.13;29.22;98325.34;4994500;28;936;-74
2023/01/09 02:31:10;;;;;;;;;;;;;;;21.12;29.20;98320.94;4994849;28;973;-74
2023/01/09 02:33:38;;;;;;;;;;;;;;;21.39;28.81;98325.69;4994990;28;1021;-74
2023/01/09 02:36:07;;;;;;;;;;;;;;;20.95;29.49;98319.25;4978430;28;1121;-74
2023/01/09 02:38:54;;;;;;;;;;;;;;;20.89;29.58;98321.00;4994309;28;986;-74
2023/01/09 02:41:22;;;;;;;;;;;;;;;21.16;29.27;98313.19;4994394;28;1026;-74
2023/01/09 02:43:47;;;;;;;;;;;;;;;21.15;29.28;98317.25;4994704;28;1979;-74
2023/01/09 02:46:19;;;;;;;;;;;;;;;21.23;28.96;98312.22;4994399;28;1004;-73
2023/01/09 02:48:44;;;;;;;;;;;;;;;20.98;29.18;98318.38;4980489;28;930;-73
2023/01/09 02:51:30;;;;;;;;;;;;;;;21.14;28.98;98320.50;4965242;28;1467;-75
2023/01/09 02:53:58;;;;;;;;;;;;;;;20.96;29.40;98320.84;4965177;28;1096;-74
2023/01/09 02:56:30;;;;;;;;;;;;;;;21.10;29.10;98326.25;5035285;28;990;-74
2023/01/09 02:58:55;;;;;;;;;;;;;;;21.36;28.89;98320.91;5040589;28;1020;-74
2023/01/09 03:01:33;;;;;;;;;;;;;;;21.24;28.74;98314.66;5040612;28;1040;-74
2023/01/09 03:04:01;;;;;;;;;;;;;;;21.04;29.09;98316.66;5040069;28;1975;-74
2023/01/09 03:06:29;;;;;;;;;;;;;;;20.76;29.86;98313.13;5023775;28;1047;-73
2023/01/09 03:08:56;;;;;;;;;;;;;;;20.64;29.85;98321.44;5023842;28;927;-74
2023/01/09 03:11:21;;;;;;;;;;;;;;;21.26;29.24;98317.81;5023804;28;1006;-74
2023/01/09 03:13:49;;;;;;;;;;;;;;;21.23;28.81;98315.84;5023598;28;1144;-73
2023/01/09 03:16:16;;;;;;;;;;;;;;;21.26;28.72;98312.16;5023911;28;941;-74
2023/01/09 03:18:42;;;;;;;;;;;;;;;20.92;29.32;98309.59;5026958;28;991;-73
2023/01/09 03:21:07;;;;;;;;;;;;;;;20.84;29.61;98318.66;5064763;28;949;-73
2023/01/09 03:23:45;;;;;;;;;;;;;;;20.83;29.63;98311.38;5081381;28;1901;-73
2023/01/09 03:26:10;;;;;;;;;;;;;;;21.30;28.89;98309.31;5082703;28;1010;-74
2023/01/09 03:28:36;;;;;;;;;;;;;;;21.24;28.93;98314.66;5082142;28;898;-74
2023/01/09 03:31:01;;;;;;;;;;;;;;;21.45;28.77;98312.63;5081649;28;850;-73
2023/01/09 03:33:27;;;;;;;;;;;;;;;21.08;28.97;98321.00;5082528;28;962;-73
2023/01/09 03:35:53;;;;;;;;;;;;;;;21.05;29.22;98309.78;5082268;28;1141;-73
2023/01/09 03:38:18;;;;;;;;;;;;;;;20.85;29.61;98317.44;5082234;28;1047;-73
2023/01/09 03:40:44;;;;;;;;;;;;;;;20.76;29.67;98313.13;5082607;28;940;-74
2023/01/09 03:43:09;;;;;;;;;;;;;;;21.12;29.02;98309.63;5081323;28;1906;-73
2023/01/09 03:45:35;;;;;;;;;;;;;;;21.11;29.26;98316.50;5082288;28;968;-73
2023/01/09 03:48:00;;;;;;;;;;;;;;;21.30;28.82;98314.97;5081215;28;1005;-74
2023/01/09 03:50:26;;;;;;;;;;;;;;;20.94;29.45;98314.84;5082427;28;865;-74
2023/01/09 03:52:51;;;;;;;;;;;;;;;20.83;29.45;98317.03;5082183;28;948;-74
2023/01/09 03:55:16;;;;;;;;;;;;;;;20.65;29.90;98318.16;5080153;28;998;-73
2023/01/09 03:57:42;;;;;;;;;;;;;;;21.12;29.22;98323.75;5082037;28;963;-74
2023/01/09 04:00:08;;;;;;;;;;;;;;;21.05;29.14;98324.72;5077176;28;994;-73
2023/01/09 04:02:42;;;;;;;;;;;;;;;21.24;29.04;98320.31;5076064;28;1965;-74
2023/01/09 04:05:08;;;;;;;;;;;;;;;21.01;29.02;98326.00;5076815;28;935;-74
2023/01/09 04:07:33;;;;;;;;;;;;;;;21.02;29.36;98324.78;5076430;28;1042;-73
2023/01/09 04:09:59;;;;;;;;;;;;;;;20.84;29.63;98333.59;5059921;28;957;-73
2023/01/09 04:12:24;;;;;;;;;;;;;;;21.01;29.51;98317.53;5076228;28;1203;-74
2023/01/09 04:14:50;;;;;;;;;;;;;;;21.17;28.93;98320.44;5076332;28;1090;-74
2023/01/09 04:17:15;;;;;;;;;;;;;;;21.33;28.61;98316.91;5076103;28;971;-74
2023/01/09 04:19:41;;;;;;;;;;;;;;;21.38;28.54;98321.25;5076257;28;1016;-74
2023/01/09 04:22:06;;;;;;;;;;;;;;;21.05;29.20;98312.59;5076411;28;1113;-74
2023/01/09 04:24:32;;;;;;;;;;;;;;;21.14;29.02;98315.66;5075866;28;1905;-74
2023/01/09 04:26:57;;;;;;;;;;;;;;;21.03;29.19;98309.38;5076338;28;1187;-74
2023/01/09 04:29:23;;;;;;;;;;;;;;;21.05;29.13;98309.78;5075851;28;1047;-73
2023/01/09 04:31:48;;;;;;;;;;;;;;;21.42;28.73;98313.50;5076020;28;982;-74
2023/01/09 04:34:13;;;;;;;;;;;;;;;21.14;28.91;98304.34;5077545;28;927;-73
2023/01/09 04:36:40;;;;;;;;;;;;;;;21.06;29.13;98294.38;5078210;28;1154;-73
2023/01/09 04:39:05;;;;;;;;;;;;;;;20.87;29.49;98295.16;5076702;28;1030;-75
2023/01/09 04:41:49;;;;;;;;;;;;;;;20.88;29.38;98296.75;5078325;28;918;-75
2023/01/09 04:44:15;;;;;;;;;;;;;;;20.92;29.76;98291.81;5077811;28;1913;-75
2023/01/09 04:46:40;;;;;;;;;;;;;;;21.13;29.13;98290.59;5077079;28;1101;-75
2023/01/09 04:49:06;;;;;;;;;;;;;;;21.30;28.74;98290.28;5078071;28;907;-75
2023/01/09 04:51:31;;;;;;;;;;;;;;;21.02;29.35;98296.47;5078278;28;931;-75
2023/01/09 04:53:57;;;;;;;;;;;;;;;20.87;29.59;98298.78;5078025;28;981;-75
2023/01/09 04:56:22;;;;;;;;;;;;;;;20.86;29.46;98304.88;5077687;28;1067;-75
2023/01/09 04:58:48;;;;;;;;;;;;;;;21.07;29.11;98304.47;5076315;28;1789;-75
2023/01/09 05:01:13;;;;;;;;;;;;;;;21.30;28.69;98309.31;5077638;28;1617;-75
2023/01/09 05:03:38;;;;;;;;;;;;;;;21.24;28.88;98303.31;5077979;28;1980;-75
2023/01/09 05:06:04;;;;;;;;;;;;;;;21.13;28.84;98304.75;5077702;28;929;-75
2023/01/09 05:08:29;;;;;;;;;;;;;;;20.73;29.58;98302.69;5057649;28;1528;-75
2023/01/09 05:10:55;;;;;;;;;;;;;;;20.93;29.21;98299.06;5077232;28;925;-75
2023/01/09 05:13:20;;;;;;;;;;;;;;;21.06;29.17;98297.22;5076856;28;1473;-75
2023/01/09 05:15:46;;;;;;;;;;;;;;;21.24;29.00;98294.84;5076963;28;1074;-75
2023/01/09 05:18:11;;;;;;;;;;;;;;;21.28;28.85;98298.38;5077015;28;1428;-75
2023/01/09 05:20:37;;;;;;;;;;;;;;;21.13;29.05;98297.06;5077647;28;918;-75
2023/01/09 05:23:02;;;;;;;;;;;;;;;20.99;29.20;98297.38;5077259;28;1898;-74
2023/01/09 05:25:28;;;;;;;;;;;;;;;20.69;29.76;98301.94;5077398;28;910;-75
2023/01/09 05:27:53;;;;;;;;;;;;;;;21.10;29.41;98303.59;5074585;28;1541;-75
2023/01/09 05:30:18;;;;;;;;;;;;;;;21.29;28.77;98299.16;5077034;28;885;-74
2023/01/09 05:32:44;;;;;;;;;;;;;;;21.60;28.30;98296.91;5076918;28;920;-75
2023/01/09 05:35:09;;;;;;;;;;;;;;;21.36;28.39;98292.59;5070667;28;1657;-75
2023/01/09 05:37:35;;;;;;;;;;;;;;;21.05;29.05;98296.41;5067623;28;1707;-75
2023/01/09 05:40:00;;;;;;;;;;;;;;;21.06;29.02;98297.22;5076384;28;890;-75
2023/01/09 05:42:26;;;;;;;;;;;;;;;21.35;29.01;98291.00;5077330;28;1914;-75
2023/01/09 05:44:51;;;;;;;;;;;;;;;21.38;28.66;98304.28;5076571;28;1910;-75
2023/01/09 05:47:16;;;;;;;;;;;;;;;21.37;28.83;98302.69;5076948;28;937;-75
2023/01/09 05:49:42;;;;;;;;;;;;;;;21.10;29.36;98306.44;5077037;28;884;-75
2023/01/09 05:52:07;;;;;;;;;;;;;;;21.08;29.12;98311.72;5076743;28;908;-75
2023/01/09 05:54:33;;;;;;;;;;;;;;;20.91;29.31;98307.19;5076759;28;1889;-75
2023/01/09 05:56:59;;;;;;;;;;;;;;;21.30;28.82;98307.28;5076802;28;978;-75
2023/01/09 05:59:24;;;;;;;;;;;;;;;21.43;28.59;98304.56;5076727;28;972;-75
2023/01/09 06:01:50;;;;;;;;;;;;;;;20.97;29.14;98299.81;5076853;28;962;-75
2023/01/09 06:04:15;;;;;;;;;;;;;;;21.11;29.17;98305.19;5076389;28;1964;-75
2023/01/09 06:06:41;;;;;;;;;;;;;;;20.99;29.61;98303.03;5076560;28;1188;-74
2023/01/09 06:09:06;;;;;;;;;;;;;;;21.16;28.94;98301.88;5076501;28;956;-75
2023/01/09 06:11:34;;;;;;;;;;;;;;;21.43;28.73;98298.91;5091940;28;1065;-75
2023/01/09 06:14:00;;;;;;;;;;;;;;;21.51;28.40;98302.41;5076366;28;1062;-74
2023/01/09 06:16:25;;;;;;;;;;;;;;;21.49;28.36;98302.00;5076302;28;1018;-76
2023/01/09 06:18:51;;;;;;;;;;;;;;;21.23;28.79;98306.56;5076115;28;942;-75
2023/01/09 06:21:16;;;;;;;;;;;;;;;21.01;29.17;98300.53;5076166;28;988;-75
2023/01/09 06:23:42;;;;;;;;;;;;;;;20.57;30.02;98305.38;5068024;28;1894;-75
2023/01/09 06:26:07;;;;;;;;;;;;;;;21.08;29.49;98300.41;5071068;28;1789;-75
2023/01/09 06:28:33;;;;;;;;;;;;;;;21.33;29.15;98300.72;5076126;28;1898;-76
2023/01/09 06:30:58;;;;;;;;;;;;;;;21.57;28.24;98306.31;5076523;28;949;-75
2023/01/09 06:33:23;;;;;;;;;;;;;;;21.07;29.01;98304.47;5076282;28;900;-75
2023/01/09 06:35:49;;;;;;;;;;;;;;;20.89;29.45;98302.00;5076301;28;944;-75
2023/01/09 06:38:14;;;;;;;;;;;;;;;20.92;29.31;98301.09;5075291;28;1676;-74
2023/01/09 06:40:40;;;;;;;;;;;;;;;21.07;29.55;98293.94;5074827;28;2911;-75
2023/01/09 06:43:05;;;;;;;;;;;;;;;21.09;29.20;98296.34;5076526;28;1897;-75
2023/01/09 06:45:31;;;;;;;;;;;;;;;21.16;28.97;98293.38;5076108;28;1726;-75
2023/01/09 06:47:56;;;;;;;;;;;;;;;21.05;29.24;98296.41;5075966;28;898;-74
2023/01/09 06:50:21;;;;;;;;;;;;;;;21.12;29.23;98294.66;5076244;28;920;-74
2023/01/09 06:52:47;;;;;;;;;;;;;;;21.07;29.15;98304.47;5076305;28;917;-75
2023/01/09 06:55:12;;;;;;;;;;;;;;;21.36;28.77;98287.75;5076043;28;966;-74
2023/01/09 06:57:38;;;;;;;;;;;;;;;21.35;28.82;98296.66;5076185;28;1821;-74
2023/01/09 07:00:03;;;;;;;;;;;;;;;21.14;28.98;98292.19;5056706;28;1451;-74
2023/01/09 07:02:29;;;;;;;;;;;;;;;20.93;29.57;98288.56;5062364;28;1786;-75
2023/01/09 07:04:54;;;;;;;;;;;;;;;20.96;29.42;98298.22;5075945;28;1914;-75
2023/01/09 07:07:21;;;;;;;;;;;;;;;20.79;29.89;98289.63;5076075;28;1820;-75
2023/01/09 07:09:46;;;;;;;;;;;;;;;21.09;29.23;98285.03;5075812;28;1008;-75
2023/01/09 07:12:13;;;;;;;;;;;;;;;21.30;28.82;98295.16;5075862;28;902;-74
2023/01/09 07:14:39;;;;;;;;;;;;;;;21.44;28.66;98299.69;5075830;28;1030;-75
2023/01/09 07:17:04;;;;;;;;;;;;;;;21.52;28.53;98293.47;5075603;28;873;-75
2023/01/09 07:19:30;;;;;;;;;;;;;;;21.23;28.87;98296.03;5075799;28;1769;-75
2023/01/09 07:21:55;;;;;;;;;;;;;;;21.02;29.57;98290.81;5075081;28;1285;-75
2023/01/09 07:24:20;;;;;;;;;;;;;;;20.96;29.70;98298.22;5076650;28;1980;-76
2023/01/09 07:26:46;;;;;;;;;;;;;;;20.91;29.74;98293.06;5076077;28;956;-75
2023/01/09 07:29:12;;;;;;;;;;;;;;;21.23;29.24;98279.06;5075343;28;973;-74
2023/01/09 07:31:37;;;;;;;;;;;;;;;21.45;28.72;98282.28;5075144;28;1979;-75
2023/01/09 07:34:03;;;;;;;;;;;;;;;21.51;28.71;98282.56;5082797;28;2088;-75
2023/01/09 07:36:28;;;;;;;;;;;;;;;21.17;29.16;98282.84;5059217;28;915;-75
2023/01/09 07:38:53;;;;;;;;;;;;;;;20.88;29.77;98283.44;5059435;28;1044;-75
2023/01/09 07:41:19;;;;;;;;;;;;;;;20.92;29.61;98280.50;5059145;28;1003;-74
2023/01/09 07:43:44;;;;;;;;;;;;;;;20.89;29.78;98287.84;5064837;28;2177;-75
2023/01/09 07:46:10;;;;;;;;;;;;;;;21.20;29.34;98279.97;5079396;28;918;-75
2023/01/09 07:48:35;;;;;;;;;;;;;;;21.47;29.11;98284.69;5079050;28;1080;-75
2023/01/09 07:51:01;;;;;;;;;;;;;;;21.46;29.21;98285.94;5078966;28;978;-75
2023/01/09 07:53:26;;;;;;;;;;;;;;;21.18;29.14;98276.75;5077886;28;1894;-75
2023/01/09 07:55:52;;;;;;;;;;;;;;;21.05;29.34;98267.34;5078881;28;926;-74
2023/01/09 07:58:17;;;;;;;;;;;;;;;20.99;29.48;98269.06;5094777;28;901;-75
2023/01/09 08:00:42;;;;;;;;;;;;;;;21.28;29.24;98270.06;5078916;28;896;-75
2023/01/09 08:03:08;;;;;;;;;;;;;;;21.39;29.05;98267.03;5078206;28;2164;-76
2023/01/09 08:05:33;;;;;;;;;;;;;;;21.26;29.17;98269.72;5058490;28;1164;-75
2023/01/09 08:08:00;;;;;;;;;;;;;;;21.02;29.74;98273.84;5058532;28;1164;-74
2023/01/09 08:10:26;;;;;;;;;;;;;;;21.00;29.50;98270.66;5059107;28;1029;-74
2023/01/09 08:12:51;;;;;;;;;;;;;;;21.41;29.20;98260.97;5058941;28;929;-75
2023/01/09 08:15:17;;;;;;;;;;;;;;;21.53;29.01;98268.78;5075922;28;2063;-75
2023/01/09 08:17:42;;;;;;;;;;;;;;;21.61;28.78;98264.56;5075878;28;2087;-75
2023/01/09 08:20:10;;;;;;;;;;;;;;;21.18;29.13;98265.44;5077399;28;1034;-74
2023/01/09 08:22:35;;;;;;;;;;;;;;;21.01;29.88;98266.59;5078307;28;962;-75
2023/01/09 08:25:00;;;;;;;;;;;;;;;20.95;29.72;98263.47;5058615;28;2063;-76
2023/01/09 08:27:26;;;;;;;;;;;;;;;21.27;29.80;98259.97;5077832;28;1993;-74
2023/01/09 08:29:51;;;;;;;;;;;;;;;21.49;28.96;98259.56;5078527;28;894;-75
2023/01/09 08:32:17;;;;;;;;;;;;;;;21.50;29.28;98263.97;5078249;28;929;-75
2023/01/09 08:34:42;;;;;;;;;;;;;;;21.26;29.12;98255.56;5077361;28;2074;-75
2023/01/09 08:37:08;;;;;;;;;;;;;;;20.94;29.74;98266.75;5078345;28;983;-75
2023/01/09 08:39:34;;;;;;;;;;;;;;;20.78;29.93;98251.28;5077649;28;1383;-75
2023/01/09 08:47:45;;;;;;;;;;;;;;;21.30;29.30;98233.69;5055265;28;1174;-74
2023/01/09 08:50:12;;;;;;;;;;;;;;;21.24;29.41;98235.41;5022120;28;955;-74
2023/01/09 08:52:37;;;;;;;;;;;;;;;21.02;29.53;98239.91;5039040;28;989;-75
2023/01/09 08:55:03;;;;;;;;;;;;;;;21.07;29.53;98233.72;5039950;28;2158;-74
2023/01/09 08:57:28;;;;;;;;;;;;;;;21.32;29.37;98230.41;5035365;28;1247;-75
2023/01/09 08:59:54;;;;;;;;;;;;;;;21.40;29.25;98222.53;5035444;28;1044;-75
2023/01/09 09:02:19;;;;;;;;;;;;;;;21.37;29.22;98221.41;5035085;28;1031;-75
2023/01/09 09:04:46;;;;;;;;;;;;;;;21.16;29.38;98216.97;5002059;28;2237;-75
2023/01/09 09:07:11;;;;;;;;;;;;;;;20.95;29.93;98223.88;5035053;28;1259;-75
2023/01/09 09:09:37;;;;;;;;;;;;;;;20.90;29.97;98213.06;5034858;28;976;-75
2023/01/09 09:12:02;;;;;;;;;;;;;;;21.49;29.22;98205.75;5035202;28;1066;-74
2023/01/09 09:17:11;;;;;;;;;;;;;;;21.06;29.46;98190.50;5054686;28;1024;-76
2023/01/09 09:19:38;;;;;;;;;;;;;;;21.26;29.52;98193.31;5071070;28;2118;-75
2023/01/09 09:22:03;;;;;;;;;;;;;;;21.20;29.08;98189.41;5076105;28;1867;-75
2023/01/09 09:24:29;;;;;;;;;;;;;;;20.98;29.48;98194.69;5076309;28;1910;-74
2023/01/09 09:26:54;;;;;;;;;;;;;;;21.37;29.60;98192.28;5076085;28;900;-75
2023/01/09 09:29:20;;;;;;;;;;;;;;;21.35;29.52;98177.78;5075412;28;937;-75
2023/01/09 09:31:45;;;;;;;;;;;;;;;21.39;29.19;98179.28;5076691;28;2101;-75
2023/01/09 09:34:12;;;;;;;;;;;;;;;21.16;29.65;98194.34;5076895;28;907;-75
2023/01/09 09:36:37;;;;;;;;;;;;;;;20.85;29.88;98187.31;5076382;28;1898;-75
2023/01/09 09:39:03;;;;;;;;;;;;;;;20.83;30.02;98193.44;5058127;28;949;-74
2023/01/09 09:47:10;;;;;;;;;;;;;;;21.22;29.33;98164.28;5076918;28;1118;-75
2023/01/09 09:49:48;;;;;;;;;;;;;;;20.90;30.08;98159.31;5075147;28;1298;-75
2023/01/09 09:52:17;;;;;;;;;;;;;;;20.90;30.00;98155.72;5074979;28;2071;-76
2023/01/09 09:54:44;;;;;;;;;;;;;;;21.09;30.09;98154.88;5076603;28;933;-75
2023/01/09 09:57:10;;;;;;;;;;;;;;;21.29;29.63;98152.78;5074609;28;943;-75
2023/01/09 09:59:36;;;;;;;;;;;;;;;21.36;29.69;98156.75;5075343;28;920;-75
2023/01/09 10:02:04;;;;;;;;;;;;;;;21.20;29.65;98154.66;5074463;28;2190;-75
2023/01/09 10:04:31;;;;;;;;;;;;;;;21.05;29.61;98137.97;5076303;28;1899;-75
2023/01/09 10:06:58;;;;;;;;;;;;;;;20.98;29.44;98145.81;5090985;28;1877;-75
2023/01/09 10:09:42;;;;;;;;;;;;;;;21.07;30.29;98144.00;5064393;28;1870;-75
2023/01/09 10:12:26;;;;;;;;;;;;;;;21.25;30.00;98152.09;5056008;28;969;-75
2023/01/09 10:14:52;;;;;;;;;;;;;;;21.45;29.33;98140.75;5056011;28;984;-74
2023/01/09 10:17:44;;;;;;;;;;;;;;;21.17;29.52;98142.16;5071403;28;1729;-75
2023/01/09 10:20:26;;;;;;;;;;;;;;;21.12;29.72;98142.69;5049605;28;2135;-75
2023/01/09 10:23:06;;;;;;;;;;;;;;;21.16;29.52;98137.75;5053526;28;1918;-75
2023/01/09 10:25:41;;;;;;;;;;;;;;;21.27;29.74;98138.28;5053770;28;1120;-75
2023/01/09 10:28:21;;;;;;;;;;;;;;;21.48;29.52;98136.22;5037733;28;999;-75
2023/01/09 10:30:49;;;;;;;;;;;;;;;21.08;29.68;98130.63;5017072;28;1079;-75
2023/01/09 10:33:17;;;;;;;;;;;;;;;20.97;30.08;98132.91;5033835;28;1074;-75
2023/01/09 10:35:54;;;;;;;;;;;;;;;21.20;29.75;98115.81;5033786;28;1011;-74
2023/01/09 10:38:22;;;;;;;;;;;;;;;21.17;30.04;98128.00;5033955;28;2165;-75
2023/01/09 10:40:50;;;;;;;;;;;;;;;21.21;30.00;98111.75;5053387;28;1023;-75
2023/01/09 10:43:19;;;;;;;;;;;;;;;21.22;29.50;98106.88;5036594;28;1905;-75
2023/01/09 10:45:51;;;;;;;;;;;;;;;21.29;29.57;98109.53;5037101;28;1166;-75
2023/01/09 10:48:22;;;;;;;;;;;;;;;21.02;29.91;98098.44;5036291;28;2274;-75
2023/01/09 10:50:48;;;;;;;;;;;;;;;20.92;30.10;98102.31;5053173;28;1013;-75
2023/01/09 10:53:15;;;;;;;;;;;;;;;21.12;30.28;98096.63;5053696;28;1032;-75
2023/01/09 10:55:44;;;;;;;;;;;;;;;21.24;29.79;98098.75;5036387;28;981;-74
2023/01/09 10:58:10;;;;;;;;;;;;;;;21.41;29.53;98096.78;5036730;28;1032;-75
2023/01/09 11:00:36;;;;;;;;;;;;;;;21.06;30.28;98096.34;5019216;28;2300;-75
2023/01/09 11:03:01;;;;;;;;;;;;;;;21.11;29.78;98095.81;5036377;28;1906;-75
2023/01/09 11:05:27;;;;;;;;;;;;;;;20.99;29.85;98088.81;5036626;28;1127;-75
2023/01/09 11:08:01;;;;;;;;;;;;;;;21.01;30.47;98088.38;5036679;28;1219;-75
2023/01/09 11:10:45;;;;;;;;;;;;;;;21.28;30.05;98090.97;5040125;28;2121;-75
2023/01/09 11:13:17;;;;;;;;;;;;;;;21.33;29.63;98088.44;5056967;28;923;-75
2023/01/09 11:15:43;;;;;;;;;;;;;;;21.22;30.03;98067.28;5040399;28;955;-74
2023/01/09 11:18:15;;;;;;;;;;;;;;;21.05;29.80;98069.28;5057134;28;978;-75
2023/01/09 11:20:41;;;;;;;;;;;;;;;21.07;29.56;98072.47;5020636;28;2087;-74
2023/01/09 11:23:09;;;;;;;;;;;;;;;21.33;30.09;98071.47;5020790;28;1906;-75
2023/01/09 11:25:35;;;;;;;;;;;;;;;21.39;29.70;98065.28;5021776;28;1519;-74
2023/01/09 11:28:00;;;;;;;;;;;;;;;21.31;29.84;98071.13;5059272;28;1097;-75
2023/01/09 11:30:26;;;;;;;;;;;;;;;21.29;29.59;98065.06;5075519;28;2138;-75
2023/01/09 11:32:52;;;;;;;;;;;;;;;21.20;29.58;98064.88;5078526;28;977;-75
2023/01/09 11:35:19;;;;;;;;;;;;;;;21.12;29.47;98071.94;5077882;28;894;-75
2023/01/09 11:37:45;;;;;;;;;;;;;;;21.04;30.20;98054.34;5077566;28;2069;-75
2023/01/09 11:40:17;;;;;;;;;;;;;;;21.14;30.06;98054.53;5079246;28;915;-75
2023/01/09 11:42:53;;;;;;;;;;;;;;;21.16;29.99;98047.19;5079067;28;937;-75
2023/01/09 11:45:19;;;;;;;;;;;;;;;20.98;30.00;98047.59;5081168;28;958;-75
2023/01/09 11:47:45;;;;;;;;;;;;;;;20.99;30.20;98048.44;5078050;28;2158;-75
2023/01/09 11:50:20;;;;;;;;;;;;;;;20.99;30.06;98042.78;5078988;28;893;-75
2023/01/09 11:52:49;;;;;;;;;;;;;;;21.10;30.53;98048.97;5078641;28;1111;-75
2023/01/09 11:55:14;;;;;;;;;;;;;;;21.20;29.96;98047.13;5094841;28;961;-75
2023/01/09 11:57:40;;;;;;;;;;;;;;;21.28;29.78;98049.31;5093513;28;2085;-75
2023/01/09 12:00:19;;;;;;;;;;;;;;;21.13;29.74;98053.72;5077923;28;2247;-75
2023/01/09 12:02:59;;;;;;;;;;;;;;;21.04;29.68;98045.88;5077601;28;963;-75
2023/01/09 12:05:42;;;;;;;;;;;;;;;20.97;29.64;98039.56;5078496;28;939;-75
2023/01/09 12:08:10;;;;;;;;;;;;;;;21.12;30.39;98046.47;5076348;28;2048;-75
2023/01/09 12:10:51;;;;;;;;;;;;;;;21.25;29.87;98050.22;5077719;28;2089;-76
2023/01/09 12:13:26;;;;;;;;;;;;;;;21.37;29.54;98045.13;5078000;28;2128;-75
2023/01/09 12:16:21;;;;;;;;;;;;;;;20.95;30.12;98039.22;5078101;28;1028;-74
2023/01/09 12:18:53;;;;;;;;;;;;;;;20.84;30.19;98041.50;5055335;28;2110;-74
2023/01/09 12:21:29;;;;;;;;;;;;;;;20.91;30.04;98038.50;5055336;28;1045;-75
2023/01/09 12:23:57;;;;;;;;;;;;;;;21.12;30.34;98035.16;5055991;28;1910;-74
2023/01/09 12:26:23;;;;;;;;;;;;;;;21.33;29.63;98029.00;5055829;28;918;-74
2023/01/09 12:29:07;;;;;;;;;;;;;;;21.45;29.39;98018.19;5053970;28;1901;-74
2023/01/09 12:31:39;;;;;;;;;;;;;;;21.22;29.73;98017.13;5055665;28;970;-75
2023/01/09 12:34:24;;;;;;;;;;;;;;;21.02;29.81;98025.69;5055932;28;1103;-76
2023/01/09 12:36:54;;;;;;;;;;;;;;;21.10;29.80;98025.53;5055407;28;1027;-75
2023/01/09 12:39:19;;;;;;;;;;;;;;;20.94;30.50;98023.50;5054909;28;2155;-75
2023/01/09 12:41:51;;;;;;;;;;;;;;;21.16;29.92;98030.22;5055896;28;1067;-75
2023/01/09 12:44:24;;;;;;;;;;;;;;;21.12;29.99;98018.19;5055252;28;1902;-74
2023/01/09 12:46:50;;;;;;;;;;;;;;;21.02;30.06;98019.25;5055840;28;1045;-74
2023/01/09 12:49:24;;;;;;;;;;;;;;;20.97;30.21;98022.59;5054605;28;2099;-75
2023/01/09 12:52:00;;;;;;;;;;;;;;;21.19;30.09;98017.22;5055956;28;982;-75
2023/01/09 12:54:33;;;;;;;;;;;;;;;21.24;29.84;98014.66;5059805;28;1010;-75
2023/01/09 12:57:17;;;;;;;;;;;;;;;21.16;29.77;98023.78;5077500;28;988;-75
2023/01/09 12:59:53;;;;;;;;;;;;;;;21.01;29.99;98017.66;5076449;28;2088;-75
2023/01/09 13:02:33;;;;;;;;;;;;;;;21.03;30.15;98024.44;5093001;28;944;-75
2023/01/09 13:05:00;;;;;;;;;;;;;;;21.10;29.94;98026.34;5077471;28;1981;-74
2023/01/09 13:07:45;;;;;;;;;;;;;;;21.46;29.47;98019.81;5092809;28;1176;-74
2023/01/09 13:10:18;;;;;;;;;;;;;;;21.71;29.03;98025.63;5076120;28;1509;-74
2023/01/09 13:12:45;;;;;;;;;;;;;;;21.27;29.52;98027.91;5095180;28;1022;-75
2023/01/09 13:15:19;;;;;;;;;;;;;;;21.25;29.76;98026.78;5095095;28;1012;-75
2023/01/09 13:17:46;;;;;;;;;;;;;;;21.08;29.95;98028.78;5094932;28;1026;-75
2023/01/09 13:20:16;;;;;;;;;;;;;;;20.81;30.39;98029.81;5094032;28;2215;-75